KLM213 EDDL-EGKK
Flight info
| Callsign | KLM213 |
|---|---|
| Flight time | N/A |
| Altitude | 28000 |
| Route | MODRU7Z/05R MODRU Z717 MAS UM617 SOGRI DCT DENUT L610 TEBRA |
| Aircraft | B77W/H-SDE1E2E3FGHIJ2J3J4J5M1RWXY/LB1D1 |
Departure
| Time | 2026-05-06 09:08 |
|---|---|
| Airport | Düsseldorf Airport (EDDL) |
Arrival
| Time | N/A |
|---|---|
| Airport | London Gatwick Airport (EGKK) |
| Time | Latitude | Longitude | Altitude | Speed | Heading |
|---|---|---|---|---|---|
| 2026-05-06 08:40 | 51.27759 | 6.76249 | 133 ft | 0 kts | 162° |
| 2026-05-06 08:56 | 51.27760 | 6.76249 | 133 ft | 2 kts | 162° |
| 2026-05-06 08:57 | 51.27779 | 6.76239 | 130 ft | 3 kts | 163° |
| 2026-05-06 08:57 | 51.27799 | 6.76230 | 132 ft | 3 kts | 166° |
| 2026-05-06 08:57 | 51.27818 | 6.76223 | 129 ft | 3 kts | 177° |
| 2026-05-06 08:57 | 51.27832 | 6.76225 | 129 ft | 1 kts | 226° |
| 2026-05-06 08:58 | 51.27837 | 6.76237 | 133 ft | 1 kts | 261° |
| 2026-05-06 08:58 | 51.27838 | 6.76251 | 134 ft | 1 kts | 269° |
| 2026-05-06 08:58 | 51.27838 | 6.76265 | 131 ft | 1 kts | 272° |
| 2026-05-06 08:58 | 51.27838 | 6.76279 | 133 ft | 1 kts | 273° |
| 2026-05-06 09:02 | 51.27839 | 6.76253 | 134 ft | 5 kts | 273° |
| 2026-05-06 09:02 | 51.27841 | 6.76189 | 133 ft | 6 kts | 272° |
| 2026-05-06 09:03 | 51.27842 | 6.76126 | 133 ft | 6 kts | 271° |
| 2026-05-06 09:03 | 51.27843 | 6.76062 | 133 ft | 6 kts | 271° |
| 2026-05-06 09:03 | 51.27843 | 6.75998 | 133 ft | 6 kts | 271° |
| 2026-05-06 09:03 | 51.27844 | 6.75955 | 133 ft | 6 kts | 271° |
| 2026-05-06 09:04 | 51.27845 | 6.75892 | 133 ft | 6 kts | 274° |
| 2026-05-06 09:04 | 51.27851 | 6.75829 | 134 ft | 6 kts | 281° |
| 2026-05-06 09:04 | 51.27858 | 6.75767 | 126 ft | 6 kts | 277° |
| 2026-05-06 09:04 | 51.27862 | 6.75711 | 127 ft | 5 kts | 276° |
| 2026-05-06 09:05 | 51.27861 | 6.75652 | 127 ft | 6 kts | 260° |
| 2026-05-06 09:05 | 51.27837 | 6.75589 | 128 ft | 8 kts | 228° |
| 2026-05-06 09:05 | 51.27796 | 6.75513 | 127 ft | 7 kts | 233° |
| 2026-05-06 09:05 | 51.27779 | 6.75466 | 126 ft | 8 kts | 251° |
| 2026-05-06 09:06 | 51.27799 | 6.75390 | 125 ft | 8 kts | 317° |
| 2026-05-06 09:06 | 51.27847 | 6.75346 | 125 ft | 6 kts | 332° |
| 2026-05-06 09:06 | 51.27891 | 6.75310 | 127 ft | 8 kts | 333° |
| 2026-05-06 09:06 | 51.27940 | 6.75272 | 123 ft | 8 kts | 337° |
| 2026-05-06 09:07 | 51.27993 | 6.75279 | 126 ft | 8 kts | 29° |
| 2026-05-06 09:07 | 51.28029 | 6.75343 | 125 ft | 8 kts | 53° |
| 2026-05-06 09:07 | 51.28082 | 6.75456 | 125 ft | 28 kts | 53° |
| 2026-05-06 09:07 | 51.28356 | 6.76029 | 128 ft | 101 kts | 53° |
| 2026-05-06 09:08 | 51.28911 | 6.77188 | 126 ft | 160 kts | 52° |
| 2026-05-06 09:08 | 51.29640 | 6.78736 | 404 ft | 182 kts | 53° |
| 2026-05-06 09:08 | 51.30380 | 6.80366 | 1118 ft | 179 kts | 51° |
| 2026-05-06 09:08 | 51.31120 | 6.81922 | 1921 ft | 178 kts | 51° |
| 2026-05-06 09:09 | 51.31913 | 6.83568 | 2214 ft | 199 kts | 52° |
| 2026-05-06 09:09 | 51.32809 | 6.85422 | 2457 ft | 222 kts | 52° |
| 2026-05-06 09:09 | 51.33757 | 6.87457 | 2882 ft | 236 kts | 54° |
| 2026-05-06 09:09 | 51.34766 | 6.89589 | 3449 ft | 244 kts | 44° |
| 2026-05-06 09:10 | 51.36270 | 6.90846 | 3982 ft | 249 kts | 12° |
| 2026-05-06 09:10 | 51.38003 | 6.91295 | 4592 ft | 255 kts | 8° |
| 2026-05-06 09:10 | 51.39767 | 6.91738 | 5325 ft | 258 kts | 9° |
| 2026-05-06 09:10 | 51.41552 | 6.92197 | 6011 ft | 263 kts | 9° |
| 2026-05-06 09:11 | 51.43389 | 6.92678 | 6602 ft | 272 kts | 9° |
| 2026-05-06 09:11 | 51.45278 | 6.92803 | 7138 ft | 276 kts | 345° |
| 2026-05-06 09:11 | 51.46881 | 6.91421 | 7785 ft | 276 kts | 312° |
| 2026-05-06 09:11 | 51.47838 | 6.88786 | 8435 ft | 277 kts | 282° |
| 2026-05-06 09:12 | 51.47918 | 6.85715 | 9063 ft | 279 kts | 257° |
| 2026-05-06 09:12 | 51.47225 | 6.82858 | 9699 ft | 275 kts | 241° |
| 2026-05-06 09:12 | 51.46286 | 6.80169 | 9793 ft | 279 kts | 239° |
| 2026-05-06 09:12 | 51.45346 | 6.77604 | 9812 ft | 282 kts | 238° |
| 2026-05-06 09:13 | 51.44336 | 6.74883 | 9818 ft | 287 kts | 238° |
| 2026-05-06 09:13 | 51.43319 | 6.72136 | 9808 ft | 285 kts | 238° |
| 2026-05-06 09:13 | 51.42313 | 6.69410 | 9807 ft | 284 kts | 239° |
| 2026-05-06 09:13 | 51.41310 | 6.66681 | 9809 ft | 285 kts | 239° |
| 2026-05-06 09:14 | 51.40301 | 6.63929 | 9806 ft | 286 kts | 239° |
| 2026-05-06 09:14 | 51.39298 | 6.61186 | 9800 ft | 284 kts | 239° |
| 2026-05-06 09:14 | 51.38300 | 6.58454 | 9807 ft | 284 kts | 239° |
| 2026-05-06 09:14 | 51.37297 | 6.55710 | 9827 ft | 287 kts | 239° |
| 2026-05-06 09:15 | 51.36286 | 6.52950 | 9822 ft | 288 kts | 239° |
| 2026-05-06 09:15 | 51.35272 | 6.50182 | 9806 ft | 288 kts | 239° |
| 2026-05-06 09:15 | 51.34267 | 6.47436 | 9780 ft | 283 kts | 239° |
| 2026-05-06 09:15 | 51.33291 | 6.44753 | 9785 ft | 275 kts | 239° |
| 2026-05-06 09:16 | 51.32346 | 6.42166 | 9785 ft | 273 kts | 239° |
| 2026-05-06 09:16 | 51.31377 | 6.39516 | 9806 ft | 280 kts | 239° |
| 2026-05-06 09:16 | 51.30377 | 6.36786 | 9808 ft | 282 kts | 239° |
| 2026-05-06 09:16 | 51.29391 | 6.34099 | 9817 ft | 285 kts | 239° |
| 2026-05-06 09:17 | 51.28381 | 6.31351 | 9816 ft | 289 kts | 239° |
| 2026-05-06 09:17 | 51.27350 | 6.28549 | 9803 ft | 288 kts | 239° |
| 2026-05-06 09:17 | 51.26350 | 6.25830 | 9802 ft | 289 kts | 239° |
| 2026-05-06 09:17 | 51.25328 | 6.23057 | 9827 ft | 291 kts | 239° |
| 2026-05-06 09:18 | 51.24280 | 6.20217 | 10067 ft | 308 kts | 240° |
| 2026-05-06 09:18 | 51.23147 | 6.17147 | 10244 ft | 333 kts | 240° |
| 2026-05-06 09:18 | 51.21930 | 6.13855 | 10420 ft | 356 kts | 240° |
| 2026-05-06 09:18 | 51.20652 | 6.10400 | 11026 ft | 366 kts | 240° |
| 2026-05-06 09:19 | 51.19349 | 6.06887 | 11998 ft | 369 kts | 240° |
| 2026-05-06 09:19 | 51.18034 | 6.03349 | 13134 ft | 375 kts | 240° |
| 2026-05-06 09:19 | 51.16681 | 5.99714 | 14013 ft | 384 kts | 239° |
| 2026-05-06 09:19 | 51.15323 | 5.96065 | 15088 ft | 385 kts | 239° |
| 2026-05-06 09:20 | 51.13934 | 5.92328 | 15862 ft | 396 kts | 239° |
| 2026-05-06 09:20 | 51.12521 | 5.88541 | 16810 ft | 398 kts | 239° |
| 2026-05-06 09:20 | 51.12097 | 5.87409 | 17153 ft | 398 kts | 239° |